Antwerp, NY

4:17 PM EDT on September 20, 2014 (GMT -0400)
Village of Gouverneur (Barnes St.) | Change Station
CLOSE
Current Station
Personal Weather Station
Location: Gouverneur, NY
Elevation: 433 ft
Nearby Weather Stations

Elev 433 ft 44.34 °N, 75.47 °W | Updated 12 minutes ago

Partly Cloudy
Partly Cloudy
75.0 °F
Feels Like 74 °F
N
5.8
Wind Variable Wind from SE

Today
High -- | Low -- °F
--% Chance of Precip.
Yesterday
High -- | Low -- °F
Precip. -- in
6:47 AM 7:03 PM
Waning Crescent, 10% visible
Pressure 29.93 in
Visibility 10.0 miles
Clouds Few 3700 ft
Heat Index 74 °F
Dew Point 71 °F
Humidity 88%
Rainfall 0.00 in
Snow Depth Not available.
UV 3 out of 12
Pollen 3.50 out of 12
Air Quality Not available.
Flu Activity Not available.
METAR KGTB 201958Z AUTO 22015G25KT 10SM FEW037 23/13 A2993 RMK AO2 PK WND 18029/02 SLP134 T02290134 20028

More Conditions Fewer Conditions

Pressure 29.93 in
Visibility 10.0 miles
Clouds Few 3700 ft
Heat Index 74 °F
Dew Point 71 °F
Humidity 88%
Rainfall 0.00 in
Snow Depth Not available.
UV 3 out of 12
Pollen 3.50 out of 12
Air Quality Not available.
Flu Activity Not available.
METAR KGTB 201958Z AUTO 22015G25KT 10SM FEW037 23/13 A2993 RMK AO2 PK WND 18029/02 SLP134 T02290134 20028

More Conditions Fewer Conditions

10-Day Weather Forecast

Almanac

Astronomy

Sep. 20, 2014 Rise Set
Actual Time 6:47 AM EDT 7:03 PM EDT
Civil Twilight 6:18 AM EDT 7:32 PM EDT
Nautical Twilight 5:44 AM EDT 8:06 PM EDT
Astronomical Twilight 5:09 AM EDT 8:41 PM EDT
Moon 3:18 AM EDT 5:10 PM EDT
Length of Visible Light 13h 14m
Length of Day
12h 16m
Tomorrow will be 3m 2s shorter.
Waning Crescent, 10% of the Moon is Illuminated
Today
Waning Crescent
Sep 24
New
Oct 1
First Quarter
Oct 8
Full
Oct 15
Last Quarter

Today's Extremes

State Highs State Lows

Community

WunderPhotos

Upload Photos

1,754,927 photos uploaded!

WunderBlogs® & News

Nearby

Air Quality

  Air Quality AQ Index Pollutant
Saturday Good
OZONE
Saturday Good
PM2.5
Sunday Good
PM2.5
Sunday Good
OZONE
Monday Good
OZONE
Monday Good
PM2.5

Snow Depth

Station Depth Elevation
No new snow has been reported.

Earthquake Activity

City Distance Mag. Time & Date
No recent earthquake activity has been reported nearby.
Minimum magnitude displayed is 2.5.

Coastal Water Temperatures

Place Temperature
Alexandria Bay, NY 64.9 °F
Ogdensburg, NY 64.9 °F

Nearby Weather Stations